Time;durP1;ratioP1;P1;durP2;ratioP2;P2;SDS_P1;SDS_P2;PMS_P1;PMS_P2;Temp;Humidity;BMP_temperature;BMP_pressure;BME280_temperature;BME280_humidity;BME280_pressure;Samples;Min_cycle;Max_cycle;Signal;HPM_P1;HPM_P2
2022/05/08 00:02:10;;;;;;;;;;;;;;;1.64;32.06;98303.63;6367216;27;19924;-62
2022/05/08 00:05:14;;;;;;;;;;;;;;;1.60;31.85;98299.34;6366942;27;20335;-61
2022/05/08 00:08:17;;;;;;;;;;;;;;;1.57;31.81;98305.41;6367889;27;19923;-61
2022/05/08 00:11:20;;;;;;;;;;;;;;;1.54;31.91;98305.41;6368955;27;19931;-62
2022/05/08 00:14:21;;;;;;;;;;;;;;;1.54;31.29;98315.81;6370933;27;20068;-62
2022/05/08 00:17:23;;;;;;;;;;;;;;;1.50;32.06;98319.25;6364256;27;20010;-62
2022/05/08 00:20:24;;;;;;;;;;;;;;;1.50;31.58;98316.66;6364166;27;19930;-62
2022/05/08 00:23:25;;;;;;;;;;;;;;;1.50;31.65;98314.06;6368919;27;20409;-62
2022/05/08 00:26:26;;;;;;;;;;;;;;;1.49;31.81;98317.53;6363216;27;19919;-62
2022/05/08 00:29:27;;;;;;;;;;;;;;;1.50;31.83;98319.25;6369117;27;19932;-61
2022/05/08 00:32:28;;;;;;;;;;;;;;;1.51;31.96;98321.00;6369267;27;19919;-62
2022/05/08 00:35:29;;;;;;;;;;;;;;;1.54;31.83;98319.25;6369639;27;19923;-61
2022/05/08 00:38:30;;;;;;;;;;;;;;;1.60;32.35;98326.13;6367578;27;20411;-61
2022/05/08 00:41:31;;;;;;;;;;;;;;;1.65;32.53;98333.91;6341841;27;20015;-61
2022/05/08 00:44:32;;;;;;;;;;;;;;;1.68;32.84;98334.75;6367649;27;19926;-61
2022/05/08 00:47:34;;;;;;;;;;;;;;;1.73;32.47;98327.78;6364530;27;19923;-61
2022/05/08 00:50:37;;;;;;;;;;;;;;;1.78;31.86;98323.44;6369919;27;20414;-62
2022/05/08 00:53:39;;;;;;;;;;;;;;;1.84;32.22;98334.63;6365842;27;20407;-62
2022/05/08 00:56:41;;;;;;;;;;;;;;;1.93;32.51;98334.59;6367688;27;20353;-62
2022/05/08 00:59:42;;;;;;;;;;;;;;;1.98;32.40;98333.69;6369383;27;19924;-62
2022/05/08 01:02:43;;;;;;;;;;;;;;;2.08;32.08;98333.59;6369202;27;19923;-61
2022/05/08 01:05:48;;;;;;;;;;;;;;;2.15;31.65;98330.97;6364465;27;19931;-63
2022/05/08 01:08:50;;;;;;;;;;;;;;;2.28;31.58;98330.84;6351363;27;19923;-61
2022/05/08 01:11:54;;;;;;;;;;;;;;;2.39;31.28;98335.06;6368097;27;19923;-62
2022/05/08 01:15:14;;;;;;;;;;;;;;;2.49;31.62;98335.84;6366167;27;19942;-61
2022/05/08 01:18:16;;;;;;;;;;;;;;;2.59;31.24;98334.88;6369461;27;19931;-61
2022/05/08 01:21:22;;;;;;;;;;;;;;;2.67;32.04;98335.69;6365641;27;19924;-62
2022/05/08 01:24:23;;;;;;;;;;;;;;;2.78;31.75;98329.53;6368832;27;20417;-62
2022/05/08 01:27:29;;;;;;;;;;;;;;;2.89;32.07;98336.31;6370087;27;20303;-62
2022/05/08 01:30:31;;;;;;;;;;;;;;;2.98;31.35;98330.16;6366342;27;19930;-62
2022/05/08 01:33:34;;;;;;;;;;;;;;;3.08;31.06;98336.97;6365946;27;19927;-62
2022/05/08 01:36:35;;;;;;;;;;;;;;;3.17;31.36;98336.00;6367731;27;19927;-62
2022/05/08 01:39:39;;;;;;;;;;;;;;;3.25;31.55;98339.34;6366232;27;19950;-62
2022/05/08 01:42:42;;;;;;;;;;;;;;;3.33;31.18;98347.94;6367432;27;20023;-62
2022/05/08 01:45:43;;;;;;;;;;;;;;;3.43;31.68;98359.09;6365367;27;19929;-61
2022/05/08 01:48:44;;;;;;;;;;;;;;;3.51;31.33;98362.47;6363135;27;20034;-62
2022/05/08 01:51:45;;;;;;;;;;;;;;;3.58;31.49;98358.03;6361371;27;20403;-62
2022/05/08 01:54:49;;;;;;;;;;;;;;;3.63;31.72;98355.38;6367645;27;19930;-61
2022/05/08 01:57:53;;;;;;;;;;;;;;;3.66;32.04;98350.13;6369340;27;19923;-63
2022/05/08 02:00:55;;;;;;;;;;;;;;;3.70;31.85;98351.81;6365574;27;20404;-62
2022/05/08 02:03:57;;;;;;;;;;;;;;;3.73;32.88;98356.97;6365660;27;20392;-62
2022/05/08 02:06:58;;;;;;;;;;;;;;;3.77;31.73;98359.53;6344265;27;19923;-61
2022/05/08 02:10:02;;;;;;;;;;;;;;;3.83;32.22;98369.00;6366568;27;19923;-61
2022/05/08 02:13:04;;;;;;;;;;;;;;;3.90;32.27;98360.19;6365234;27;19932;-61
2022/05/08 02:16:11;;;;;;;;;;;;;;;3.99;32.38;98359.19;6366376;27;19923;-61
2022/05/08 02:19:12;;;;;;;;;;;;;;;4.11;33.05;98363.38;6364485;27;19923;-61
2022/05/08 02:22:13;;;;;;;;;;;;;;;4.24;32.57;98360.53;6366541;27;20009;-61
2022/05/08 02:25:16;;;;;;;;;;;;;;;4.40;31.63;98370.72;6364328;27;19959;-61
2022/05/08 02:28:17;;;;;;;;;;;;;;;4.55;31.43;98369.63;6364466;27;19924;-61
2022/05/08 02:31:18;;;;;;;;;;;;;;;4.69;31.61;98372.84;6364165;27;19927;-61
2022/05/08 02:34:22;;;;;;;;;;;;;;;4.84;30.64;98367.38;6367487;27;19923;-61
2022/05/08 02:37:27;;;;;;;;;;;;;;;5.06;30.16;98377.41;6368320;27;20419;-61
2022/05/08 02:40:30;;;;;;;;;;;;;;;5.29;29.62;98376.94;6365018;27;20463;-62
2022/05/08 02:43:31;;;;;;;;;;;;;;;5.52;29.66;98366.03;6367067;27;20454;-61
2022/05/08 02:46:32;;;;;;;;;;;;;;;5.77;29.83;98369.84;6366028;27;19924;-60
2022/05/08 02:49:33;;;;;;;;;;;;;;;6.07;29.62;98370.13;6366220;27;20015;-61
2022/05/08 02:52:39;;;;;;;;;;;;;;;6.37;29.74;98368.53;6365882;27;19923;-61
2022/05/08 02:59:01;;;;;;;;;;;;;;;7.03;28.08;98368.63;6363594;28;19939;-62
2022/05/08 03:02:02;;;;;;;;;;;;;;;7.29;28.20;98373.16;6365034;28;20004;-61
2022/05/08 03:05:04;;;;;;;;;;;;;;;7.49;27.61;98389.16;6361548;28;19930;-61
2022/05/08 03:08:05;;;;;;;;;;;;;;;7.64;28.02;98378.25;6368667;27;19931;-62
2022/05/08 03:11:27;;;;;;;;;;;;;;;7.79;27.80;98383.94;6367920;27;19924;-62
2022/05/08 03:14:31;;;;;;;;;;;;;;;7.91;27.57;98385.34;6365747;28;20304;-61
2022/05/08 03:17:32;;;;;;;;;;;;;;;7.95;27.91;98387.81;6369255;27;19923;-61
2022/05/08 03:20:35;;;;;;;;;;;;;;;7.94;28.12;98390.50;6369014;27;20022;-62
2022/05/08 03:23:36;;;;;;;;;;;;;;;7.87;28.29;98395.06;6366966;28;19923;-62
2022/05/08 03:26:40;;;;;;;;;;;;;;;7.85;28.40;98391.63;6368113;28;19923;-62
2022/05/08 03:29:42;;;;;;;;;;;;;;;7.92;28.58;98387.91;6366024;27;19923;-62
2022/05/08 03:32:45;;;;;;;;;;;;;;;8.06;28.22;98390.13;6366697;27;20396;-63
2022/05/08 03:35:48;;;;;;;;;;;;;;;8.17;28.38;98385.41;6370578;27;19923;-62
2022/05/08 03:38:55;;;;;;;;;;;;;;;8.27;28.25;98378.97;6373786;27;20023;-61
2022/05/08 03:41:55;;;;;;;;;;;;;;;8.36;28.36;98388.31;6367224;27;20319;-63
2022/05/08 03:45:01;;;;;;;;;;;;;;;8.43;28.16;98384.59;6367750;27;20396;-61
2022/05/08 03:48:02;;;;;;;;;;;;;;;8.49;28.36;98381.81;6366168;27;20317;-62
2022/05/08 03:51:08;;;;;;;;;;;;;;;8.62;27.99;98384.03;6370572;27;19924;-63
2022/05/08 03:54:11;;;;;;;;;;;;;;;8.81;27.83;98390.38;6372745;27;19923;-62
2022/05/08 03:57:14;;;;;;;;;;;;;;;8.98;27.82;98388.03;6372433;27;19923;-62
2022/05/08 04:00:16;;;;;;;;;;;;;;;9.30;27.40;98387.81;6367073;27;20385;-63
2022/05/08 04:03:17;;;;;;;;;;;;;;;9.76;26.84;98384.38;6368731;27;19968;-62
2022/05/08 04:06:18;;;;;;;;;;;;;;;10.20;26.36;98387.09;6364335;27;19928;-61
2022/05/08 04:09:19;;;;;;;;;;;;;;;10.52;26.24;98388.44;6369387;27;19930;-63
2022/05/08 04:12:20;;;;;;;;;;;;;;;10.78;26.10;98381.25;6368497;27;19930;-61
2022/05/08 04:18:48;;;;;;;;;;;;;;;11.46;25.43;98385.38;6365110;27;19923;-62
2022/05/08 04:21:49;;;;;;;;;;;;;;;11.69;24.81;98384.34;6365898;27;19930;-63
2022/05/08 04:24:53;;;;;;;;;;;;;;;11.85;24.44;98395.06;6366125;27;20314;-63
2022/05/08 04:27:54;;;;;;;;;;;;;;;11.99;24.43;98381.22;6370247;27;20006;-61
2022/05/08 04:30:58;;;;;;;;;;;;;;;12.12;24.24;98384.19;6367470;27;19923;-62
2022/05/08 04:34:02;;;;;;;;;;;;;;;12.31;23.98;98384.13;6371807;27;19924;-63
2022/05/08 04:37:05;;;;;;;;;;;;;;;12.51;23.81;98389.34;6368150;27;19927;-63
2022/05/08 04:40:06;;;;;;;;;;;;;;;13.93;22.85;98388.25;6364887;27;19923;-62
2022/05/08 04:43:07;;;;;;;;;;;;;;;18.16;20.01;98400.78;6370125;27;20431;-62
2022/05/08 04:46:10;;;;;;;;;;;;;;;22.84;16.73;98401.25;6368148;27;20344;-62
2022/05/08 04:49:14;;;;;;;;;;;;;;;26.61;15.10;98406.38;6367650;27;19923;-63
2022/05/08 04:52:15;;;;;;;;;;;;;;;30.00;13.46;98402.22;6369137;27;19938;-63
2022/05/08 04:55:16;;;;;;;;;;;;;;;32.93;9.82;98394.06;6352043;27;19923;-63
2022/05/08 04:58:17;;;;;;;;;;;;;;;35.38;9.67;98402.91;6365127;27;20041;-63
2022/05/08 05:01:18;;;;;;;;;;;;;;;37.00;10.26;98406.34;6364463;27;20303;-62
2022/05/08 05:04:19;;;;;;;;;;;;;;;37.98;9.58;98398.72;6365744;27;19962;-67
2022/05/08 05:07:23;;;;;;;;;;;;;;;38.55;8.83;98400.81;6349633;27;20517;-62
2022/05/08 05:10:28;;;;;;;;;;;;;;;39.05;8.62;98400.22;6366942;27;19923;-63
2022/05/08 05:13:32;;;;;;;;;;;;;;;40.09;8.21;98394.28;6369444;27;19927;-62
2022/05/08 05:16:36;;;;;;;;;;;;;;;41.02;8.00;98399.06;6366030;27;19924;-63
2022/05/08 05:19:37;;;;;;;;;;;;;;;41.61;7.08;98392.78;6370352;27;20011;-62
2022/05/08 05:22:38;;;;;;;;;;;;;;;42.26;6.71;98394.34;6362796;27;19923;-63
2022/05/08 05:25:41;;;;;;;;;;;;;;;43.39;5.66;98383.72;6364558;27;19924;-63
2022/05/08 05:28:45;;;;;;;;;;;;;;;44.65;6.01;98388.56;6367967;27;19923;-63
2022/05/08 05:31:48;;;;;;;;;;;;;;;45.30;4.87;98383.75;6363434;27;19923;-63
2022/05/08 05:34:50;;;;;;;;;;;;;;;45.58;4.86;98376.63;6369358;27;19965;-62
2022/05/08 05:37:51;;;;;;;;;;;;;;;45.84;4.78;98373.59;6366136;27;19930;-63
2022/05/08 05:40:52;;;;;;;;;;;;;;;45.44;3.48;98368.09;6364520;27;19923;-63
2022/05/08 05:43:53;;;;;;;;;;;;;;;44.37;3.60;98363.13;6347826;27;19967;-63
2022/05/08 05:50:17;;;;;;;;;;;;;;;43.25;3.36;98353.78;6365494;27;19930;-62
2022/05/08 05:53:23;;;;;;;;;;;;;;;42.05;3.57;98348.34;6367991;27;19924;-63
2022/05/08 05:56:24;;;;;;;;;;;;;;;41.28;4.22;98339.47;6367210;27;20321;-62
2022/05/08 05:59:25;;;;;;;;;;;;;;;41.99;3.78;98338.38;6368067;27;20046;-62
2022/05/08 06:02:26;;;;;;;;;;;;;;;42.71;2.17;98348.66;6364924;27;20886;-63
2022/05/08 06:05:27;;;;;;;;;;;;;;;41.30;2.93;98340.00;6362811;27;19930;-63
2022/05/08 06:08:32;;;;;;;;;;;;;;;40.78;3.19;98330.38;6367049;27;19948;-62
2022/05/08 06:11:36;;;;;;;;;;;;;;;41.98;3.08;98331.97;6366863;27;20432;-64
2022/05/08 06:14:37;;;;;;;;;;;;;;;43.61;2.26;98337.19;6347767;27;20016;-62
2022/05/08 06:17:40;;;;;;;;;;;;;;;43.81;2.23;98330.78;6362052;27;19923;-63
2022/05/08 06:20:45;;;;;;;;;;;;;;;43.89;2.34;98321.06;6364111;27;20312;-62
2022/05/08 06:23:54;;;;;;;;;;;;;;;45.33;1.84;98322.03;6364862;27;19953;-63
2022/05/08 06:26:55;;;;;;;;;;;;;;;46.37;1.75;98312.38;6365111;27;20418;-62
2022/05/08 06:29:59;;;;;;;;;;;;;;;46.63;1.59;98315.66;6366568;27;19927;-63
2022/05/08 06:32:59;;;;;;;;;;;;;;;47.95;1.36;98317.41;6364542;27;19923;-63
2022/05/08 06:36:03;;;;;;;;;;;;;;;47.80;0.96;98304.59;6365897;27;19923;-62
2022/05/08 06:39:07;;;;;;;;;;;;;;;47.34;0.99;98293.41;6363102;27;19927;-62
2022/05/08 06:42:09;;;;;;;;;;;;;;;47.13;1.00;98295.72;6362838;27;19987;-62
2022/05/08 06:45:10;;;;;;;;;;;;;;;47.37;1.34;98298.38;6363162;27;19924;-63
2022/05/08 06:48:16;;;;;;;;;;;;;;;48.26;1.28;98300.06;6357098;27;19923;-63
2022/05/08 06:51:17;;;;;;;;;;;;;;;49.09;1.20;98294.31;6365497;27;20003;-63
2022/05/08 06:54:19;;;;;;;;;;;;;;;49.78;0.84;98282.78;6368682;27;19930;-62
2022/05/08 06:57:23;;;;;;;;;;;;;;;50.67;0.04;98287.16;6360603;27;20018;-62
2022/05/08 07:03:43;;;;;;;;;;;;;;;52.07;0.00;98288.59;6366344;27;19924;-63
2022/05/08 07:06:47;;;;;;;;;;;;;;;52.64;0.37;98283.63;6371451;27;19927;-62
2022/05/08 07:09:49;;;;;;;;;;;;;;;53.23;0.50;98280.66;6351504;27;19969;-62
2022/05/08 07:12:53;;;;;;;;;;;;;;;53.71;0.00;98281.16;6368635;27;19923;-63
2022/05/08 07:15:54;;;;;;;;;;;;;;;52.45;0.00;98276.50;6368670;27;19942;-63
2022/05/08 07:18:55;;;;;;;;;;;;;;;50.97;0.54;98257.31;6369708;27;19976;-62
2022/05/08 07:21:58;;;;;;;;;;;;;;;51.21;0.28;98254.00;6369186;27;19924;-64
2022/05/08 07:24:59;;;;;;;;;;;;;;;51.49;0.46;98258.41;6372444;27;20411;-63
2022/05/08 07:28:00;;;;;;;;;;;;;;;51.31;0.50;98247.22;6365573;27;19923;-63
2022/05/08 07:31:04;;;;;;;;;;;;;;;51.44;0.51;98248.19;6366828;27;19924;-63
2022/05/08 07:37:26;;;;;;;;;;;;;;;51.57;0.17;98247.16;6354612;27;19923;-62
2022/05/08 07:40:30;;;;;;;;;;;;;;;50.25;0.54;98233.56;6368450;27;19924;-63
2022/05/08 07:43:32;;;;;;;;;;;;;;;50.00;0.92;98217.50;6369802;27;19923;-62
2022/05/08 07:46:33;;;;;;;;;;;;;;;51.26;0.46;98222.16;6361794;27;19924;-62
2022/05/08 07:49:37;;;;;;;;;;;;;;;50.96;0.00;98226.81;6364507;27;19922;-63
2022/05/08 07:52:39;;;;;;;;;;;;;;;48.62;0.81;98202.41;6373872;27;19927;-63
2022/05/08 07:55:41;;;;;;;;;;;;;;;49.10;0.18;98189.78;6349120;27;20020;-63
2022/05/08 07:58:42;;;;;;;;;;;;;;;49.64;0.70;98201.75;6393431;27;19930;-62
2022/05/08 08:01:45;;;;;;;;;;;;;;;49.51;0.42;98199.84;6369017;27;19931;-65
2022/05/08 08:04:49;;;;;;;;;;;;;;;48.44;0.70;98190.25;6365285;27;19927;-64
2022/05/08 08:07:53;;;;;;;;;;;;;;;47.37;0.81;98189.66;6364690;27;20049;-67
2022/05/08 08:10:58;;;;;;;;;;;;;;;45.97;0.94;98180.16;6361510;27;19927;-63
2022/05/08 08:14:02;;;;;;;;;;;;;;;45.66;1.20;98177.72;6362253;27;19950;-64
2022/05/08 08:17:03;;;;;;;;;;;;;;;46.34;1.02;98163.50;6367849;27;20285;-65
2022/05/08 08:20:09;;;;;;;;;;;;;;;47.94;0.74;98165.13;6363004;27;19923;-64
2022/05/08 08:23:10;;;;;;;;;;;;;;;47.86;0.33;98169.47;6359204;27;19935;-64
2022/05/08 08:26:17;;;;;;;;;;;;;;;42.92;1.51;98153.00;6348727;27;19923;-65
2022/05/08 08:29:23;;;;;;;;;;;;;;;41.20;2.20;98144.69;6365175;27;19926;-63
2022/05/08 08:32:24;;;;;;;;;;;;;;;41.91;2.26;98138.72;6363979;27;19926;-64
2022/05/08 08:35:27;;;;;;;;;;;;;;;42.29;2.12;98132.97;6359643;27;20026;-64
2022/05/08 08:38:30;;;;;;;;;;;;;;;43.70;1.97;98137.84;6362789;27;19923;-63
2022/05/08 08:41:34;;;;;;;;;;;;;;;44.52;1.24;98141.00;6357214;27;19938;-63
2022/05/08 08:48:09;;;;;;;;;;;;;;;43.72;1.85;98121.78;6352475;27;19928;-64
2022/05/08 08:51:11;;;;;;;;;;;;;;;44.38;1.30;98118.63;6366794;27;19936;-65
2022/05/08 08:54:19;;;;;;;;;;;;;;;42.99;1.78;98125.00;6366292;27;19924;-64
2022/05/08 08:57:22;;;;;;;;;;;;;;;40.17;2.46;98118.16;6369094;27;19930;-64
2022/05/08 09:00:28;;;;;;;;;;;;;;;40.26;2.53;98117.72;6365571;27;20400;-63
2022/05/08 09:03:30;;;;;;;;;;;;;;;41.70;2.04;98107.41;6365454;27;20293;-64
2022/05/08 09:06:41;;;;;;;;;;;;;;;42.47;1.86;98109.53;6364820;27;20428;-64
2022/05/08 09:09:42;;;;;;;;;;;;;;;41.69;2.30;98093.84;6366813;27;19930;-64
2022/05/08 09:12:45;;;;;;;;;;;;;;;41.79;2.14;98102.16;6361827;27;19924;-63
2022/05/08 09:15:59;;;;;;;;;;;;;;;41.81;2.29;98105.47;6362579;27;19924;-64
2022/05/08 09:19:00;;;;;;;;;;;;;;;41.16;2.41;98085.56;6357864;27;19924;-64
2022/05/08 09:22:03;;;;;;;;;;;;;;;40.83;2.55;98078.47;6364455;27;19930;-63
2022/05/08 09:25:06;;;;;;;;;;;;;;;41.72;2.27;98083.06;6346578;27;19923;-64
2022/05/08 09:28:09;;;;;;;;;;;;;;;42.21;2.26;98081.81;6360962;27;20023;-64
2022/05/08 09:31:11;;;;;;;;;;;;;;;41.68;2.30;98078.38;6356141;27;19931;-65
2022/05/08 09:34:14;;;;;;;;;;;;;;;41.74;2.23;98063.47;6367684;27;19923;-64
2022/05/08 09:37:15;;;;;;;;;;;;;;;40.89;2.41;98066.34;6367640;27;19930;-63
2022/05/08 09:40:19;;;;;;;;;;;;;;;39.40;2.92;98046.72;6346443;27;19923;-64
2022/05/08 09:43:28;;;;;;;;;;;;;;;40.22;2.66;98055.91;6369252;27;19923;-65
2022/05/08 09:46:34;;;;;;;;;;;;;;;40.44;2.56;98055.81;6364273;27;19919;-64
2022/05/08 09:49:36;;;;;;;;;;;;;;;39.49;2.85;98047.91;6366177;27;19923;-64
2022/05/08 09:52:40;;;;;;;;;;;;;;;38.93;2.65;98039.78;6361717;27;20269;-64
2022/05/08 09:55:43;;;;;;;;;;;;;;;38.03;3.19;98046.28;6366754;27;19919;-64
2022/05/08 09:58:47;;;;;;;;;;;;;;;36.97;3.37;98044.66;6367633;27;19923;-64
2022/05/08 10:01:49;;;;;;;;;;;;;;;36.06;3.82;98027.66;6342621;27;20301;-64
2022/05/08 10:04:53;;;;;;;;;;;;;;;36.45;3.39;98033.56;6362862;27;20044;-64
2022/05/08 10:07:55;;;;;;;;;;;;;;;37.21;3.39;98028.19;6363526;27;20419;-64
2022/05/08 10:14:24;;;;;;;;;;;;;;;38.99;3.05;98010.41;6366953;27;19923;-65
2022/05/08 10:17:29;;;;;;;;;;;;;;;39.01;2.91;98011.81;6366532;27;19923;-64
2022/05/08 10:20:56;;;;;;;;;;;;;;;37.37;3.24;98005.44;6356197;27;20408;-64
2022/05/08 10:23:59;;;;;;;;;;;;;;;36.01;3.81;97993.78;6351430;27;19930;-64
2022/05/08 10:27:15;;;;;;;;;;;;;;;34.67;4.32;97985.66;6368195;27;19923;-64
2022/05/08 10:30:21;;;;;;;;;;;;;;;34.47;4.35;97975.72;6364504;27;19927;-64
2022/05/08 10:33:45;;;;;;;;;;;;;;;35.77;3.72;97973.75;6367153;27;19927;-64
2022/05/08 10:37:14;;;;;;;;;;;;;;;36.53;3.85;97972.91;6362160;27;19983;-64
2022/05/08 10:40:21;;;;;;;;;;;;;;;37.00;3.76;97972.84;6364917;27;20017;-64
2022/05/08 10:43:28;;;;;;;;;;;;;;;35.61;4.05;97973.34;6366994;27;19919;-64
2022/05/08 10:46:32;;;;;;;;;;;;;;;34.38;4.62;97960.69;6366368;27;19923;-64
2022/05/08 10:49:35;;;;;;;;;;;;;;;34.25;4.50;97961.66;6348181;27;19919;-64
2022/05/08 10:52:48;;;;;;;;;;;;;;;34.70;4.24;97964.16;6366154;27;19924;-64
2022/05/08 10:55:58;;;;;;;;;;;;;;;34.30;4.47;97964.56;6368176;27;19923;-64
2022/05/08 10:59:06;;;;;;;;;;;;;;;33.83;4.75;97958.66;6340176;28;19946;-64
2022/05/08 11:02:09;;;;;;;;;;;;;;;34.41;4.50;97955.59;6361733;27;19930;-64
2022/05/08 11:05:16;;;;;;;;;;;;;;;33.82;4.43;97948.75;6366226;27;20023;-64
2022/05/08 11:08:28;;;;;;;;;;;;;;;32.98;4.69;97949.84;6361346;27;19969;-64
2022/05/08 11:11:29;;;;;;;;;;;;;;;31.99;5.53;97949.03;6364116;28;19924;-64
2022/05/08 11:14:33;;;;;;;;;;;;;;;31.02;5.77;97942.09;6363573;27;20014;-64
2022/05/08 11:17:37;;;;;;;;;;;;;;;30.09;6.07;97936.09;6365474;27;19944;-64
2022/05/08 11:20:59;;;;;;;;;;;;;;;30.45;6.22;97932.41;6365947;27;19923;-63
2022/05/08 11:24:00;;;;;;;;;;;;;;;30.98;6.08;97932.69;6360013;28;19923;-65
2022/05/08 11:27:09;;;;;;;;;;;;;;;30.75;5.93;97922.13;6363877;27;20424;-64
2022/05/08 11:30:11;;;;;;;;;;;;;;;30.40;6.25;97919.41;6362625;28;19930;-65
2022/05/08 11:36:38;;;;;;;;;;;;;;;28.96;6.62;97916.00;6364795;28;20010;-64
2022/05/08 11:39:39;;;;;;;;;;;;;;;28.47;6.63;97912.06;6364853;27;19920;-63
2022/05/08 11:42:40;;;;;;;;;;;;;;;28.14;6.95;97901.59;6368170;27;20335;-64
2022/05/08 11:45:56;;;;;;;;;;;;;;;27.99;6.88;97898.03;6357802;27;19928;-64
2022/05/08 11:48:59;;;;;;;;;;;;;;;27.66;7.04;97895.63;6364900;28;19923;-63
2022/05/08 11:52:03;;;;;;;;;;;;;;;27.41;7.39;97888.75;6365474;27;19924;-63
2022/05/08 11:55:05;;;;;;;;;;;;;;;27.11;7.29;97888.59;6367198;27;19968;-63
2022/05/08 11:58:06;;;;;;;;;;;;;;;26.78;7.37;97882.53;6372663;27;20320;-63
2022/05/08 12:01:19;;;;;;;;;;;;;;;26.15;7.81;97884.31;6365360;27;20381;-63
2022/05/08 12:04:22;;;;;;;;;;;;;;;26.01;8.36;97879.63;6366876;27;20325;-63
2022/05/08 12:07:23;;;;;;;;;;;;;;;25.59;8.19;97869.91;6366025;27;20026;-64
2022/05/08 12:10:37;;;;;;;;;;;;;;;25.98;8.33;97870.88;6366239;27;20352;-64
2022/05/08 12:13:56;;;;;;;;;;;;;;;26.54;8.11;97859.25;6363692;27;19935;-63
2022/05/08 12:17:02;;;;;;;;;;;;;;;26.98;7.66;97866.75;6370666;27;20644;-63
2022/05/08 12:20:08;;;;;;;;;;;;;;;26.37;8.35;97853.88;6364321;27;20000;-65
2022/05/08 12:23:12;;;;;;;;;;;;;;;26.13;8.03;97845.91;6369618;27;19923;-64
2022/05/08 12:26:13;;;;;;;;;;;;;;;25.52;8.70;97840.94;6366846;27;19929;-64
2022/05/08 12:29:16;;;;;;;;;;;;;;;25.06;8.75;97843.28;6368297;27;20392;-63
2022/05/08 12:32:17;;;;;;;;;;;;;;;24.40;8.92;97826.16;6362952;27;19928;-63
2022/05/08 12:35:19;;;;;;;;;;;;;;;24.34;8.96;97825.94;6366925;27;19950;-64
2022/05/08 12:38:23;;;;;;;;;;;;;;;24.02;8.99;97827.50;6370331;27;19923;-63
2022/05/08 12:41:30;;;;;;;;;;;;;;;23.50;9.19;97822.16;6369368;27;20472;-63
2022/05/08 12:44:33;;;;;;;;;;;;;;;23.01;9.26;97816.38;6369026;27;19929;-63
2022/05/08 12:47:34;;;;;;;;;;;;;;;22.66;9.38;97812.69;6365708;27;19923;-63
2022/05/08 12:50:37;;;;;;;;;;;;;;;21.94;9.96;97817.03;6368130;27;19923;-64
2022/05/08 12:53:38;;;;;;;;;;;;;;;21.53;9.84;97829.84;6365029;27;19942;-63
2022/05/08 12:56:41;;;;;;;;;;;;;;;21.10;10.22;97824.97;6371733;27;19923;-64
2022/05/08 12:59:48;;;;;;;;;;;;;;;20.88;10.11;97818.94;6368471;27;19927;-64
2022/05/08 13:02:51;;;;;;;;;;;;;;;20.45;10.21;97806.75;6367590;27;20316;-63
2022/05/08 13:05:52;;;;;;;;;;;;;;;20.38;10.28;97806.50;6365421;27;20304;-62
2022/05/08 13:08:56;;;;;;;;;;;;;;;20.46;10.59;97805.78;6366303;27;20045;-64
2022/05/08 13:12:00;;;;;;;;;;;;;;;20.46;10.72;97805.78;6378256;27;19923;-63
2022/05/08 13:15:04;;;;;;;;;;;;;;;20.31;10.93;97799.16;6391583;27;19930;-62
2022/05/08 13:18:06;;;;;;;;;;;;;;;20.09;11.01;97794.88;6365922;27;19930;-64
2022/05/08 13:21:07;;;;;;;;;;;;;;;20.04;10.85;97781.94;6369487;27;19923;-63
2022/05/08 13:24:08;;;;;;;;;;;;;;;20.07;11.10;97776.31;6370376;27;20293;-64
2022/05/08 13:27:09;;;;;;;;;;;;;;;19.97;11.47;97764.75;6359498;27;20456;-63
2022/05/08 13:30:11;;;;;;;;;;;;;;;19.89;11.39;97761.91;6371573;27;19923;-62
2022/05/08 13:33:14;;;;;;;;;;;;;;;20.01;11.89;97766.16;6371769;27;19966;-64
2022/05/08 13:36:17;;;;;;;;;;;;;;;19.82;11.68;97763.47;6371211;27;19927;-63
2022/05/08 13:39:20;;;;;;;;;;;;;;;19.78;11.66;97760.19;6366498;27;19923;-63
2022/05/08 13:42:25;;;;;;;;;;;;;;;19.96;11.91;97760.41;6366027;27;20385;-65
2022/05/08 13:45:26;;;;;;;;;;;;;;;19.62;11.75;97759.84;6363576;27;20350;-64
2022/05/08 13:48:29;;;;;;;;;;;;;;;19.30;11.99;97750.13;6369055;27;20393;-63
2022/05/08 13:51:30;;;;;;;;;;;;;;;19.16;11.82;97753.97;6366508;27;19988;-63
2022/05/08 13:54:36;;;;;;;;;;;;;;;19.12;11.87;97736.56;6367876;27;19923;-62
2022/05/08 13:57:40;;;;;;;;;;;;;;;18.83;12.37;97739.88;6366830;27;19919;-63
2022/05/08 14:00:48;;;;;;;;;;;;;;;18.84;12.36;97732.72;6364597;27;19923;-65
2022/05/08 14:03:51;;;;;;;;;;;;;;;18.70;12.36;97731.19;6370075;27;19919;-65
2022/05/08 14:06:52;;;;;;;;;;;;;;;18.47;12.59;97729.63;6366394;27;19930;-64
2022/05/08 14:09:55;;;;;;;;;;;;;;;18.33;12.67;97728.94;6368060;27;20035;-65
2022/05/08 14:13:03;;;;;;;;;;;;;;;18.36;12.76;97736.66;6388770;27;20369;-66
2022/05/08 14:16:04;;;;;;;;;;;;;;;18.22;13.32;97731.63;6345628;28;19934;-66
2022/05/08 14:19:06;;;;;;;;;;;;;;;18.02;13.38;97735.94;6356159;27;19929;-65
2022/05/08 14:22:09;;;;;;;;;;;;;;;17.89;13.18;97741.44;6347680;27;20214;-67
2022/05/08 14:25:13;;;;;;;;;;;;;;;17.76;13.25;97740.69;6363526;27;19924;-66
2022/05/08 14:28:17;;;;;;;;;;;;;;;17.41;13.29;97736.34;6357054;27;19927;-64
2022/05/08 14:38:01;;;;;;;;;;;;;;;17.05;13.94;97740.06;6344605;28;20416;-64
2022/05/08 14:41:04;;;;;;;;;;;;;;;17.11;14.03;97736.09;6359862;27;19923;-64
2022/05/08 14:44:07;;;;;;;;;;;;;;;16.94;14.54;97735.56;6371306;27;20357;-64
2022/05/08 14:47:08;;;;;;;;;;;;;;;16.56;14.59;97728.69;6378523;27;20415;-64
2022/05/08 14:50:14;;;;;;;;;;;;;;;16.59;14.90;97733.78;6368841;27;19934;-64
2022/05/08 14:53:15;;;;;;;;;;;;;;;16.19;14.95;97732.38;6358651;27;19923;-64
2022/05/08 14:56:16;;;;;;;;;;;;;;;15.96;15.07;97728.78;6369471;28;19927;-64
2022/05/08 14:59:21;;;;;;;;;;;;;;;15.85;15.25;97724.25;6370873;28;20311;-64
2022/05/08 15:02:22;;;;;;;;;;;;;;;15.71;15.25;97723.44;6351578;28;20304;-63
2022/05/08 15:05:24;;;;;;;;;;;;;;;15.53;15.33;97721.22;6346310;28;19924;-65
2022/05/08 15:08:24;;;;;;;;;;;;;;;15.69;15.65;97727.16;6345280;28;20285;-63
2022/05/08 15:11:30;;;;;;;;;;;;;;;15.32;15.64;97728.91;6359343;28;19923;-63
2022/05/08 15:14:34;;;;;;;;;;;;;;;15.22;15.89;97726.88;6370756;28;19927;-63
2022/05/08 15:18:47;;;;;;;;;;;;;;;15.36;16.13;97720.63;6358544;27;19924;-64
2022/05/08 15:20:58;;;;;;;;;;;;;;;15.29;16.42;97729.13;6359590;28;19928;-64
2022/05/08 15:24:01;;;;;;;;;;;;;;;14.93;16.47;97728.91;6356001;27;19923;-64
2022/05/08 15:27:03;;;;;;;;;;;;;;;15.14;16.66;97728.38;6361932;27;19920;-64
2022/05/08 15:30:04;;;;;;;;;;;;;;;15.04;16.86;97720.25;6362009;27;19923;-63
2022/05/08 15:33:07;;;;;;;;;;;;;;;14.74;16.91;97721.38;6370018;27;19927;-64
2022/05/08 15:36:08;;;;;;;;;;;;;;;14.80;17.04;97718.34;6371152;27;19923;-64
2022/05/08 15:39:10;;;;;;;;;;;;;;;14.60;16.94;97721.47;6372073;27;19923;-62
2022/05/08 15:42:11;;;;;;;;;;;;;;;14.54;17.08;97716.59;6345037;27;20317;-67
2022/05/08 15:45:12;;;;;;;;;;;;;;;14.40;17.15;97716.63;6360388;27;19930;-69
2022/05/08 15:48:14;;;;;;;;;;;;;;;14.09;17.25;97716.00;6385558;27;19923;-65
2022/05/08 15:51:19;;;;;;;;;;;;;;;14.11;17.41;97717.63;6367368;27;19933;-65
2022/05/08 15:54:20;;;;;;;;;;;;;;;14.03;17.55;97711.97;6375280;27;19922;-65
2022/05/08 15:57:24;;;;;;;;;;;;;;;14.06;17.51;97716.22;6397480;27;19920;-65
2022/05/08 16:00:28;;;;;;;;;;;;;;;14.05;17.53;97709.25;6359034;27;19930;-65
2022/05/08 16:03:33;;;;;;;;;;;;;;;13.88;17.50;97708.53;6353082;27;19924;-63
2022/05/08 16:06:34;;;;;;;;;;;;;;;13.88;17.55;97718.28;6373040;27;19926;-64
2022/05/08 16:09:35;;;;;;;;;;;;;;;14.02;17.88;97718.22;6374573;27;20292;-63
2022/05/08 16:26:07;;;;;;;;;;;;;;;13.64;18.52;97724.19;6374601;27;19923;-63
2022/05/08 16:29:11;;;;;;;;;;;;;;;13.34;18.90;97719.03;6374125;27;19924;-63
2022/05/08 16:32:15;;;;;;;;;;;;;;;13.33;18.98;97721.75;6374245;27;20293;-63
2022/05/08 16:35:16;;;;;;;;;;;;;;;13.23;19.37;97726.75;6350989;27;20036;-63
2022/05/08 16:38:19;;;;;;;;;;;;;;;13.01;19.60;97733.34;6366822;27;19923;-64
2022/05/08 16:41:23;;;;;;;;;;;;;;;12.80;19.63;97729.38;6358961;27;19923;-63
2022/05/08 16:44:24;;;;;;;;;;;;;;;12.71;19.87;97729.91;6355430;27;19923;-63
2022/05/08 16:47:28;;;;;;;;;;;;;;;12.65;20.17;97725.84;6373912;27;20029;-62
2022/05/08 16:50:31;;;;;;;;;;;;;;;12.45;20.22;97724.38;6373007;27;19924;-64
2022/05/08 16:53:34;;;;;;;;;;;;;;;12.52;20.64;97725.75;6370838;27;19938;-63